sensor_id;sensor_type;location;lat;lon;timestamp;P1;durP1;ratioP1;P2;durP2;ratioP2
77322;SDS011;66384;51.052;9.850;2023-09-12T00:00:55;14.00;;;6.30;;
77322;SDS011;66384;51.052;9.850;2023-09-12T00:03:34;8.80;;;5.30;;
77322;SDS011;66384;51.052;9.850;2023-09-12T00:06:06;13.10;;;7.30;;
77322;SDS011;66384;51.052;9.850;2023-09-12T00:08:38;15.90;;;8.30;;
77322;SDS011;66384;51.052;9.850;2023-09-12T00:11:10;9.90;;;6.00;;
77322;SDS011;66384;51.052;9.850;2023-09-12T00:13:42;10.10;;;6.20;;
77322;SDS011;66384;51.052;9.850;2023-09-12T00:16:14;9.90;;;5.80;;
77322;SDS011;66384;51.052;9.850;2023-09-12T00:18:45;11.60;;;5.90;;
77322;SDS011;66384;51.052;9.850;2023-09-12T00:21:17;14.00;;;6.60;;
77322;SDS011;66384;51.052;9.850;2023-09-12T00:23:48;10.00;;;5.70;;
77322;SDS011;66384;51.052;9.850;2023-09-12T00:26:20;10.00;;;5.80;;
77322;SDS011;66384;51.052;9.850;2023-09-12T00:28:51;12.00;;;7.30;;
77322;SDS011;66384;51.052;9.850;2023-09-12T00:31:23;10.80;;;6.30;;
77322;SDS011;66384;51.052;9.850;2023-09-12T00:33:54;13.70;;;6.50;;
77322;SDS011;66384;51.052;9.850;2023-09-12T00:36:26;11.90;;;6.40;;
77322;SDS011;66384;51.052;9.850;2023-09-12T00:38:57;9.70;;;6.20;;
77322;SDS011;66384;51.052;9.850;2023-09-12T00:41:29;13.60;;;6.10;;
77322;SDS011;66384;51.052;9.850;2023-09-12T00:44:00;9.90;;;6.90;;
77322;SDS011;66384;51.052;9.850;2023-09-12T00:46:32;8.70;;;6.60;;
77322;SDS011;66384;51.052;9.850;2023-09-12T00:49:04;11.10;;;6.40;;
77322;SDS011;66384;51.052;9.850;2023-09-12T00:51:37;17.10;;;7.10;;
77322;SDS011;66384;51.052;9.850;2023-09-12T00:54:10;11.80;;;7.10;;
77322;SDS011;66384;51.052;9.850;2023-09-12T00:56:42;10.20;;;6.50;;
77322;SDS011;66384;51.052;9.850;2023-09-12T00:59:14;14.50;;;5.70;;
77322;SDS011;66384;51.052;9.850;2023-09-12T01:01:48;10.60;;;6.90;;
77322;SDS011;66384;51.052;9.850;2023-09-12T01:04:20;16.10;;;7.60;;
77322;SDS011;66384;51.052;9.850;2023-09-12T01:07:03;12.10;;;5.90;;
77322;SDS011;66384;51.052;9.850;2023-09-12T01:09:35;10.00;;;5.90;;
77322;SDS011;66384;51.052;9.850;2023-09-12T01:12:07;10.30;;;5.80;;
77322;SDS011;66384;51.052;9.850;2023-09-12T01:14:43;10.60;;;6.70;;
77322;SDS011;66384;51.052;9.850;2023-09-12T01:17:15;10.30;;;6.40;;
77322;SDS011;66384;51.052;9.850;2023-09-12T01:19:47;13.10;;;8.10;;
77322;SDS011;66384;51.052;9.850;2023-09-12T01:28:37;9.30;;;5.80;;
77322;SDS011;66384;51.052;9.850;2023-09-12T01:31:12;9.10;;;6.10;;
77322;SDS011;66384;51.052;9.850;2023-09-12T01:33:45;12.70;;;6.50;;
77322;SDS011;66384;51.052;9.850;2023-09-12T01:36:17;9.20;;;6.00;;
77322;SDS011;66384;51.052;9.850;2023-09-12T01:38:48;11.40;;;6.70;;
77322;SDS011;66384;51.052;9.850;2023-09-12T01:41:20;13.10;;;6.70;;
77322;SDS011;66384;51.052;9.850;2023-09-12T01:43:51;13.00;;;5.90;;
77322;SDS011;66384;51.052;9.850;2023-09-12T01:46:24;12.90;;;6.50;;
77322;SDS011;66384;51.052;9.850;2023-09-12T01:48:57;12.20;;;6.90;;
77322;SDS011;66384;51.052;9.850;2023-09-12T01:51:29;10.00;;;6.60;;
77322;SDS011;66384;51.052;9.850;2023-09-12T01:54:02;13.20;;;6.40;;
77322;SDS011;66384;51.052;9.850;2023-09-12T01:56:35;14.80;;;6.60;;
77322;SDS011;66384;51.052;9.850;2023-09-12T01:59:08;11.30;;;7.00;;
77322;SDS011;66384;51.052;9.850;2023-09-12T02:01:40;16.80;;;6.50;;
77322;SDS011;66384;51.052;9.850;2023-09-12T02:04:12;7.80;;;5.60;;
77322;SDS011;66384;51.052;9.850;2023-09-12T02:06:44;12.10;;;6.30;;
77322;SDS011;66384;51.052;9.850;2023-09-12T02:09:17;7.50;;;5.90;;
77322;SDS011;66384;51.052;9.850;2023-09-12T02:11:48;14.90;;;6.40;;
77322;SDS011;66384;51.052;9.850;2023-09-12T02:14:20;12.90;;;6.80;;
77322;SDS011;66384;51.052;9.850;2023-09-12T02:16:52;10.50;;;6.20;;
77322;SDS011;66384;51.052;9.850;2023-09-12T02:19:24;11.30;;;6.60;;
77322;SDS011;66384;51.052;9.850;2023-09-12T02:21:55;14.10;;;6.00;;
77322;SDS011;66384;51.052;9.850;2023-09-12T02:24:28;8.20;;;6.00;;
77322;SDS011;66384;51.052;9.850;2023-09-12T02:26:59;10.50;;;7.20;;
77322;SDS011;66384;51.052;9.850;2023-09-12T02:29:31;17.10;;;6.80;;
77322;SDS011;66384;51.052;9.850;2023-09-12T02:32:03;11.70;;;6.50;;
77322;SDS011;66384;51.052;9.850;2023-09-12T02:34:35;9.80;;;6.80;;
77322;SDS011;66384;51.052;9.850;2023-09-12T02:37:07;10.50;;;5.90;;
77322;SDS011;66384;51.052;9.850;2023-09-12T02:39:39;11.70;;;6.30;;
77322;SDS011;66384;51.052;9.850;2023-09-12T02:42:10;15.90;;;5.90;;
77322;SDS011;66384;51.052;9.850;2023-09-12T02:44:42;9.90;;;5.90;;
77322;SDS011;66384;51.052;9.850;2023-09-12T02:47:14;12.20;;;6.00;;
77322;SDS011;66384;51.052;9.850;2023-09-12T02:49:46;10.90;;;7.10;;
77322;SDS011;66384;51.052;9.850;2023-09-12T02:52:17;13.90;;;6.50;;
77322;SDS011;66384;51.052;9.850;2023-09-12T02:54:49;10.90;;;6.70;;
77322;SDS011;66384;51.052;9.850;2023-09-12T02:57:21;8.90;;;6.00;;
77322;SDS011;66384;51.052;9.850;2023-09-12T02:59:52;11.30;;;7.10;;
77322;SDS011;66384;51.052;9.850;2023-09-12T03:02:24;11.70;;;6.40;;
77322;SDS011;66384;51.052;9.850;2023-09-12T03:04:58;15.30;;;7.10;;
77322;SDS011;66384;51.052;9.850;2023-09-12T03:07:30;12.70;;;6.20;;
77322;SDS011;66384;51.052;9.850;2023-09-12T03:10:01;13.20;;;6.00;;
77322;SDS011;66384;51.052;9.850;2023-09-12T03:12:34;9.30;;;5.60;;
77322;SDS011;66384;51.052;9.850;2023-09-12T03:15:07;13.70;;;6.60;;
77322;SDS011;66384;51.052;9.850;2023-09-12T03:17:40;10.00;;;5.70;;
77322;SDS011;66384;51.052;9.850;2023-09-12T03:20:12;13.70;;;5.90;;
77322;SDS011;66384;51.052;9.850;2023-09-12T03:22:44;10.40;;;6.70;;
77322;SDS011;66384;51.052;9.850;2023-09-12T03:25:17;12.20;;;6.70;;
77322;SDS011;66384;51.052;9.850;2023-09-12T03:27:48;12.90;;;6.60;;
77322;SDS011;66384;51.052;9.850;2023-09-12T03:30:20;14.70;;;6.10;;
77322;SDS011;66384;51.052;9.850;2023-09-12T03:32:52;8.00;;;5.60;;
77322;SDS011;66384;51.052;9.850;2023-09-12T03:35:24;12.50;;;6.20;;
77322;SDS011;66384;51.052;9.850;2023-09-12T03:37:55;11.80;;;6.60;;
77322;SDS011;66384;51.052;9.850;2023-09-12T03:40:27;8.30;;;5.30;;
77322;SDS011;66384;51.052;9.850;2023-09-12T03:42:59;10.30;;;5.90;;
77322;SDS011;66384;51.052;9.850;2023-09-12T03:45:31;11.60;;;6.50;;
77322;SDS011;66384;51.052;9.850;2023-09-12T03:48:03;11.00;;;6.50;;
77322;SDS011;66384;51.052;9.850;2023-09-12T03:50:35;8.10;;;5.90;;
77322;SDS011;66384;51.052;9.850;2023-09-12T03:53:07;11.80;;;6.50;;
77322;SDS011;66384;51.052;9.850;2023-09-12T03:55:38;10.00;;;6.40;;
77322;SDS011;66384;51.052;9.850;2023-09-12T03:58:10;17.90;;;6.70;;
77322;SDS011;66384;51.052;9.850;2023-09-12T04:00:42;9.30;;;6.60;;
77322;SDS011;66384;51.052;9.850;2023-09-12T04:03:14;14.70;;;7.10;;
77322;SDS011;66384;51.052;9.850;2023-09-12T04:05:47;10.20;;;5.20;;
77322;SDS011;66384;51.052;9.850;2023-09-12T04:08:19;10.90;;;6.20;;
77322;SDS011;66384;51.052;9.850;2023-09-12T04:10:51;12.40;;;6.20;;
77322;SDS011;66384;51.052;9.850;2023-09-12T04:13:23;12.90;;;6.20;;
77322;SDS011;66384;51.052;9.850;2023-09-12T04:15:54;11.50;;;6.00;;
77322;SDS011;66384;51.052;9.850;2023-09-12T04:18:26;10.20;;;6.50;;
77322;SDS011;66384;51.052;9.850;2023-09-12T04:20:57;9.70;;;6.90;;
77322;SDS011;66384;51.052;9.850;2023-09-12T04:23:29;11.10;;;6.00;;
77322;SDS011;66384;51.052;9.850;2023-09-12T04:26:00;14.50;;;6.10;;
77322;SDS011;66384;51.052;9.850;2023-09-12T04:28:32;13.10;;;6.10;;
77322;SDS011;66384;51.052;9.850;2023-09-12T04:31:03;10.20;;;6.50;;
77322;SDS011;66384;51.052;9.850;2023-09-12T04:33:35;10.30;;;5.80;;
77322;SDS011;66384;51.052;9.850;2023-09-12T04:36:06;7.70;;;6.00;;
77322;SDS011;66384;51.052;9.850;2023-09-12T04:38:38;15.10;;;5.60;;
77322;SDS011;66384;51.052;9.850;2023-09-12T04:41:11;10.70;;;5.80;;
77322;SDS011;66384;51.052;9.850;2023-09-12T04:43:45;12.40;;;5.80;;
77322;SDS011;66384;51.052;9.850;2023-09-12T04:46:17;10.30;;;6.40;;
77322;SDS011;66384;51.052;9.850;2023-09-12T04:48:48;9.70;;;6.20;;
77322;SDS011;66384;51.052;9.850;2023-09-12T04:51:20;9.40;;;5.20;;
77322;SDS011;66384;51.052;9.850;2023-09-12T04:53:52;12.60;;;6.30;;
77322;SDS011;66384;51.052;9.850;2023-09-12T04:56:24;10.00;;;5.90;;
77322;SDS011;66384;51.052;9.850;2023-09-12T04:58:55;12.50;;;6.60;;
77322;SDS011;66384;51.052;9.850;2023-09-12T05:01:27;10.70;;;6.50;;
77322;SDS011;66384;51.052;9.850;2023-09-12T05:03:58;16.50;;;6.50;;
77322;SDS011;66384;51.052;9.850;2023-09-12T05:06:31;12.20;;;5.90;;
77322;SDS011;66384;51.052;9.850;2023-09-12T05:09:03;14.30;;;7.00;;
77322;SDS011;66384;51.052;9.850;2023-09-12T05:11:37;12.10;;;6.60;;
77322;SDS011;66384;51.052;9.850;2023-09-12T05:14:09;10.40;;;7.00;;
77322;SDS011;66384;51.052;9.850;2023-09-12T05:16:41;13.30;;;6.10;;
77322;SDS011;66384;51.052;9.850;2023-09-12T05:19:13;9.90;;;7.00;;
77322;SDS011;66384;51.052;9.850;2023-09-12T05:21:44;10.50;;;5.80;;
77322;SDS011;66384;51.052;9.850;2023-09-12T05:24:16;14.00;;;5.70;;
77322;SDS011;66384;51.052;9.850;2023-09-12T05:26:47;11.50;;;5.70;;
77322;SDS011;66384;51.052;9.850;2023-09-12T05:29:19;7.80;;;5.80;;
77322;SDS011;66384;51.052;9.850;2023-09-12T05:31:50;12.20;;;5.40;;
77322;SDS011;66384;51.052;9.850;2023-09-12T05:34:22;10.60;;;6.00;;
77322;SDS011;66384;51.052;9.850;2023-09-12T05:36:53;13.20;;;6.80;;
77322;SDS011;66384;51.052;9.850;2023-09-12T05:39:26;11.20;;;6.50;;
77322;SDS011;66384;51.052;9.850;2023-09-12T05:41:57;16.30;;;11.00;;
77322;SDS011;66384;51.052;9.850;2023-09-12T05:44:29;18.30;;;13.10;;
77322;SDS011;66384;51.052;9.850;2023-09-12T05:47:01;10.60;;;7.70;;
77322;SDS011;66384;51.052;9.850;2023-09-12T05:49:33;12.60;;;7.40;;
77322;SDS011;66384;51.052;9.850;2023-09-12T05:52:05;13.10;;;7.10;;
77322;SDS011;66384;51.052;9.850;2023-09-12T05:54:36;10.30;;;7.50;;
77322;SDS011;66384;51.052;9.850;2023-09-12T05:57:11;9.10;;;6.40;;
77322;SDS011;66384;51.052;9.850;2023-09-12T05:59:42;11.50;;;6.70;;
77322;SDS011;66384;51.052;9.850;2023-09-12T06:02:14;11.60;;;7.10;;
77322;SDS011;66384;51.052;9.850;2023-09-12T06:04:46;14.20;;;7.70;;
77322;SDS011;66384;51.052;9.850;2023-09-12T06:07:18;12.70;;;7.40;;
77322;SDS011;66384;51.052;9.850;2023-09-12T06:09:50;14.10;;;8.10;;
77322;SDS011;66384;51.052;9.850;2023-09-12T06:12:21;16.80;;;8.40;;
77322;SDS011;66384;51.052;9.850;2023-09-12T06:14:53;17.70;;;8.10;;
77322;SDS011;66384;51.052;9.850;2023-09-12T06:17:24;11.50;;;9.40;;
77322;SDS011;66384;51.052;9.850;2023-09-12T06:19:56;22.00;;;15.20;;
77322;SDS011;66384;51.052;9.850;2023-09-12T06:22:27;16.70;;;11.20;;
77322;SDS011;66384;51.052;9.850;2023-09-12T06:25:01;24.50;;;16.10;;
77322;SDS011;66384;51.052;9.850;2023-09-12T06:27:33;15.70;;;10.90;;
77322;SDS011;66384;51.052;9.850;2023-09-12T06:30:05;16.30;;;8.80;;
77322;SDS011;66384;51.052;9.850;2023-09-12T06:32:38;14.80;;;9.80;;
77322;SDS011;66384;51.052;9.850;2023-09-12T06:35:10;18.20;;;10.40;;
77322;SDS011;66384;51.052;9.850;2023-09-12T06:37:44;24.70;;;11.10;;
77322;SDS011;66384;51.052;9.850;2023-09-12T06:40:16;19.50;;;11.80;;
77322;SDS011;66384;51.052;9.850;2023-09-12T06:42:47;21.20;;;14.10;;
77322;SDS011;66384;51.052;9.850;2023-09-12T06:45:19;19.90;;;11.90;;
77322;SDS011;66384;51.052;9.850;2023-09-12T06:47:51;29.00;;;22.00;;
77322;SDS011;66384;51.052;9.850;2023-09-12T06:50:23;20.80;;;15.70;;
77322;SDS011;66384;51.052;9.850;2023-09-12T06:53:01;21.20;;;11.10;;
77322;SDS011;66384;51.052;9.850;2023-09-12T06:55:34;20.00;;;11.70;;
77322;SDS011;66384;51.052;9.850;2023-09-12T06:58:06;26.10;;;10.90;;
77322;SDS011;66384;51.052;9.850;2023-09-12T07:00:37;17.80;;;9.40;;
77322;SDS011;66384;51.052;9.850;2023-09-12T07:03:10;13.50;;;9.30;;
77322;SDS011;66384;51.052;9.850;2023-09-12T07:05:45;15.90;;;9.90;;
77322;SDS011;66384;51.052;9.850;2023-09-12T07:08:16;16.90;;;10.20;;
77322;SDS011;66384;51.052;9.850;2023-09-12T07:10:48;18.20;;;9.90;;
77322;SDS011;66384;51.052;9.850;2023-09-12T07:13:20;14.60;;;9.60;;
77322;SDS011;66384;51.052;9.850;2023-09-12T07:15:51;11.90;;;9.60;;
77322;SDS011;66384;51.052;9.850;2023-09-12T07:18:23;22.70;;;15.00;;
77322;SDS011;66384;51.052;9.850;2023-09-12T07:20:58;17.60;;;10.00;;
77322;SDS011;66384;51.052;9.850;2023-09-12T07:23:30;18.90;;;11.50;;
77322;SDS011;66384;51.052;9.850;2023-09-12T07:26:02;23.80;;;11.30;;
77322;SDS011;66384;51.052;9.850;2023-09-12T07:28:33;18.80;;;11.70;;
77322;SDS011;66384;51.052;9.850;2023-09-12T07:31:06;16.50;;;9.10;;
77322;SDS011;66384;51.052;9.850;2023-09-12T07:33:38;22.20;;;9.60;;
77322;SDS011;66384;51.052;9.850;2023-09-12T07:36:10;17.60;;;9.90;;
77322;SDS011;66384;51.052;9.850;2023-09-12T07:38:42;34.20;;;26.00;;
77322;SDS011;66384;51.052;9.850;2023-09-12T07:41:14;26.10;;;19.00;;
77322;SDS011;66384;51.052;9.850;2023-09-12T07:43:48;42.00;;;31.90;;
77322;SDS011;66384;51.052;9.850;2023-09-12T07:46:19;30.50;;;17.60;;
77322;SDS011;66384;51.052;9.850;2023-09-12T07:48:51;26.00;;;16.10;;
77322;SDS011;66384;51.052;9.850;2023-09-12T07:51:23;23.30;;;14.90;;
77322;SDS011;66384;51.052;9.850;2023-09-12T07:53:55;28.60;;;20.00;;
77322;SDS011;66384;51.052;9.850;2023-09-12T07:56:26;73.10;;;56.40;;
77322;SDS011;66384;51.052;9.850;2023-09-12T07:58:58;38.60;;;29.70;;
77322;SDS011;66384;51.052;9.850;2023-09-12T08:01:29;57.20;;;42.70;;
77322;SDS011;66384;51.052;9.850;2023-09-12T08:04:01;25.10;;;15.20;;
77322;SDS011;66384;51.052;9.850;2023-09-12T08:06:33;33.20;;;22.60;;
77322;SDS011;66384;51.052;9.850;2023-09-12T08:09:23;23.20;;;13.10;;
77322;SDS011;66384;51.052;9.850;2023-09-12T08:12:14;21.10;;;12.90;;
77322;SDS011;66384;51.052;9.850;2023-09-12T08:14:46;17.50;;;11.80;;
77322;SDS011;66384;51.052;9.850;2023-09-12T08:17:18;21.50;;;12.50;;
77322;SDS011;66384;51.052;9.850;2023-09-12T08:19:49;22.10;;;13.30;;
77322;SDS011;66384;51.052;9.850;2023-09-12T08:22:21;21.80;;;12.00;;
77322;SDS011;66384;51.052;9.850;2023-09-12T08:24:53;18.70;;;12.30;;
77322;SDS011;66384;51.052;9.850;2023-09-12T08:27:24;21.80;;;13.50;;
77322;SDS011;66384;51.052;9.850;2023-09-12T08:29:56;17.70;;;11.10;;
77322;SDS011;66384;51.052;9.850;2023-09-12T08:32:27;22.90;;;11.40;;
77322;SDS011;66384;51.052;9.850;2023-09-12T08:34:59;25.20;;;11.00;;
77322;SDS011;66384;51.052;9.850;2023-09-12T08:37:32;12.70;;;10.40;;
77322;SDS011;66384;51.052;9.850;2023-09-12T08:40:05;29.70;;;20.00;;
77322;SDS011;66384;51.052;9.850;2023-09-12T08:42:40;28.50;;;21.20;;
77322;SDS011;66384;51.052;9.850;2023-09-12T08:45:13;23.80;;;13.90;;
77322;SDS011;66384;51.052;9.850;2023-09-12T08:47:51;25.70;;;14.30;;
77322;SDS011;66384;51.052;9.850;2023-09-12T08:50:25;31.40;;;17.50;;
77322;SDS011;66384;51.052;9.850;2023-09-12T08:52:59;26.60;;;16.60;;
77322;SDS011;66384;51.052;9.850;2023-09-12T08:55:36;23.80;;;13.80;;
77322;SDS011;66384;51.052;9.850;2023-09-12T08:58:07;28.10;;;18.30;;
77322;SDS011;66384;51.052;9.850;2023-09-12T09:00:40;19.40;;;10.50;;
77322;SDS011;66384;51.052;9.850;2023-09-12T09:03:13;23.20;;;11.60;;
77322;SDS011;66384;51.052;9.850;2023-09-12T09:05:46;12.90;;;8.80;;
77322;SDS011;66384;51.052;9.850;2023-09-12T09:08:19;17.90;;;12.70;;
77322;SDS011;66384;51.052;9.850;2023-09-12T09:10:58;18.30;;;10.50;;
77322;SDS011;66384;51.052;9.850;2023-09-12T09:13:32;20.80;;;13.10;;
77322;SDS011;66384;51.052;9.850;2023-09-12T09:16:10;23.00;;;17.20;;
77322;SDS011;66384;51.052;9.850;2023-09-12T09:18:50;14.50;;;10.00;;
77322;SDS011;66384;51.052;9.850;2023-09-12T09:21:24;25.10;;;15.60;;
77322;SDS011;66384;51.052;9.850;2023-09-12T09:23:59;16.80;;;12.70;;
77322;SDS011;66384;51.052;9.850;2023-09-12T09:26:42;24.60;;;15.50;;
77322;SDS011;66384;51.052;9.850;2023-09-12T09:29:16;19.40;;;11.10;;
77322;SDS011;66384;51.052;9.850;2023-09-12T09:31:49;26.30;;;18.00;;
77322;SDS011;66384;51.052;9.850;2023-09-12T09:34:21;23.30;;;16.40;;
77322;SDS011;66384;51.052;9.850;2023-09-12T09:36:53;23.80;;;11.90;;
77322;SDS011;66384;51.052;9.850;2023-09-12T09:39:27;24.70;;;12.00;;
77322;SDS011;66384;51.052;9.850;2023-09-12T09:41:59;14.00;;;9.60;;
77322;SDS011;66384;51.052;9.850;2023-09-12T09:44:31;31.30;;;18.80;;
77322;SDS011;66384;51.052;9.850;2023-09-12T09:47:04;16.60;;;11.70;;
77322;SDS011;66384;51.052;9.850;2023-09-12T09:49:37;20.50;;;9.80;;
77322;SDS011;66384;51.052;9.850;2023-09-12T09:52:09;28.30;;;22.70;;
77322;SDS011;66384;51.052;9.850;2023-09-12T09:54:44;22.60;;;12.00;;
77322;SDS011;66384;51.052;9.850;2023-09-12T09:57:16;28.00;;;21.20;;
77322;SDS011;66384;51.052;9.850;2023-09-12T09:59:49;17.10;;;11.60;;
77322;SDS011;66384;51.052;9.850;2023-09-12T10:02:21;21.10;;;14.90;;
77322;SDS011;66384;51.052;9.850;2023-09-12T10:04:57;29.40;;;16.00;;
77322;SDS011;66384;51.052;9.850;2023-09-12T10:07:33;19.90;;;15.30;;
77322;SDS011;66384;51.052;9.850;2023-09-12T10:10:07;25.40;;;13.20;;
77322;SDS011;66384;51.052;9.850;2023-09-12T10:12:41;22.60;;;18.00;;
77322;SDS011;66384;51.052;9.850;2023-09-12T10:15:19;15.80;;;9.90;;
77322;SDS011;66384;51.052;9.850;2023-09-12T10:17:53;17.50;;;8.90;;
77322;SDS011;66384;51.052;9.850;2023-09-12T10:20:28;14.40;;;9.00;;
77322;SDS011;66384;51.052;9.850;2023-09-12T10:23:08;18.00;;;9.30;;
77322;SDS011;66384;51.052;9.850;2023-09-12T10:25:44;15.60;;;7.80;;
77322;SDS011;66384;51.052;9.850;2023-09-12T10:28:17;13.40;;;7.90;;
77322;SDS011;66384;51.052;9.850;2023-09-12T10:30:50;14.40;;;9.60;;
77322;SDS011;66384;51.052;9.850;2023-09-12T10:33:23;31.70;;;24.00;;
77322;SDS011;66384;51.052;9.850;2023-09-12T10:38:33;16.70;;;9.20;;
77322;SDS011;66384;51.052;9.850;2023-09-12T10:41:11;13.80;;;8.40;;
77322;SDS011;66384;51.052;9.850;2023-09-12T10:43:44;13.90;;;8.20;;
77322;SDS011;66384;51.052;9.850;2023-09-12T10:46:21;15.80;;;9.30;;
77322;SDS011;66384;51.052;9.850;2023-09-12T10:48:52;20.80;;;9.00;;
77322;SDS011;66384;51.052;9.850;2023-09-12T10:51:24;15.00;;;8.40;;
77322;SDS011;66384;51.052;9.850;2023-09-12T10:53:56;15.50;;;8.20;;
77322;SDS011;66384;51.052;9.850;2023-09-12T10:56:28;22.20;;;9.60;;
77322;SDS011;66384;51.052;9.850;2023-09-12T10:59:11;21.40;;;8.80;;
77322;SDS011;66384;51.052;9.850;2023-09-12T11:01:44;12.50;;;8.30;;
77322;SDS011;66384;51.052;9.850;2023-09-12T11:04:32;15.70;;;8.70;;
77322;SDS011;66384;51.052;9.850;2023-09-12T11:10:16;13.90;;;7.90;;
77322;SDS011;66384;51.052;9.850;2023-09-12T11:12:50;12.50;;;8.80;;
77322;SDS011;66384;51.052;9.850;2023-09-12T11:15:24;27.20;;;10.40;;
77322;SDS011;66384;51.052;9.850;2023-09-12T11:18:00;17.10;;;8.00;;
77322;SDS011;66384;51.052;9.850;2023-09-12T11:20:51;15.50;;;8.20;;
77322;SDS011;66384;51.052;9.850;2023-09-12T11:23:32;20.50;;;9.40;;
77322;SDS011;66384;51.052;9.850;2023-09-12T11:26:05;13.20;;;8.20;;
77322;SDS011;66384;51.052;9.850;2023-09-12T11:28:40;20.70;;;7.80;;
77322;SDS011;66384;51.052;9.850;2023-09-12T11:31:13;23.50;;;7.70;;
77322;SDS011;66384;51.052;9.850;2023-09-12T11:36:30;15.10;;;8.20;;
77322;SDS011;66384;51.052;9.850;2023-09-12T11:39:17;17.60;;;9.10;;
77322;SDS011;66384;51.052;9.850;2023-09-12T11:41:54;18.20;;;11.00;;
77322;SDS011;66384;51.052;9.850;2023-09-12T11:44:27;16.90;;;8.40;;
77322;SDS011;66384;51.052;9.850;2023-09-12T11:47:01;14.30;;;8.40;;
77322;SDS011;66384;51.052;9.850;2023-09-12T11:49:38;19.80;;;10.70;;
77322;SDS011;66384;51.052;9.850;2023-09-12T11:52:12;16.20;;;9.50;;
77322;SDS011;66384;51.052;9.850;2023-09-12T11:54:45;14.70;;;8.70;;
77322;SDS011;66384;51.052;9.850;2023-09-12T11:57:17;18.30;;;11.40;;
77322;SDS011;66384;51.052;9.850;2023-09-12T11:59:48;19.50;;;9.80;;
77322;SDS011;66384;51.052;9.850;2023-09-12T12:02:21;14.10;;;8.80;;
77322;SDS011;66384;51.052;9.850;2023-09-12T12:04:52;20.80;;;9.80;;
77322;SDS011;66384;51.052;9.850;2023-09-12T12:07:26;15.90;;;9.80;;
77322;SDS011;66384;51.052;9.850;2023-09-12T12:09:58;16.80;;;8.30;;
77322;SDS011;66384;51.052;9.850;2023-09-12T12:12:32;17.30;;;10.00;;
77322;SDS011;66384;51.052;9.850;2023-09-12T12:15:05;21.20;;;11.40;;
77322;SDS011;66384;51.052;9.850;2023-09-12T12:17:41;19.10;;;11.00;;
77322;SDS011;66384;51.052;9.850;2023-09-12T12:20:13;16.00;;;9.40;;
77322;SDS011;66384;51.052;9.850;2023-09-12T12:22:45;15.80;;;8.40;;
77322;SDS011;66384;51.052;9.850;2023-09-12T12:25:17;16.30;;;8.30;;
77322;SDS011;66384;51.052;9.850;2023-09-12T12:27:49;15.50;;;9.70;;
77322;SDS011;66384;51.052;9.850;2023-09-12T12:30:21;12.80;;;8.30;;
77322;SDS011;66384;51.052;9.850;2023-09-12T12:32:52;23.20;;;13.30;;
77322;SDS011;66384;51.052;9.850;2023-09-12T12:35:38;17.10;;;8.20;;
77322;SDS011;66384;51.052;9.850;2023-09-12T12:38:19;15.80;;;8.00;;
77322;SDS011;66384;51.052;9.850;2023-09-12T12:40:51;15.20;;;8.10;;
77322;SDS011;66384;51.052;9.850;2023-09-12T12:43:22;22.90;;;8.80;;
77322;SDS011;66384;51.052;9.850;2023-09-12T12:45:56;14.10;;;8.10;;
77322;SDS011;66384;51.052;9.850;2023-09-12T12:48:32;15.20;;;9.10;;
77322;SDS011;66384;51.052;9.850;2023-09-12T12:53:46;16.50;;;8.20;;
77322;SDS011;66384;51.052;9.850;2023-09-12T12:56:23;15.60;;;8.40;;
77322;SDS011;66384;51.052;9.850;2023-09-12T12:59:00;13.00;;;8.00;;
77322;SDS011;66384;51.052;9.850;2023-09-12T13:01:32;16.90;;;8.80;;
77322;SDS011;66384;51.052;9.850;2023-09-12T13:04:05;16.10;;;9.50;;
77322;SDS011;66384;51.052;9.850;2023-09-12T13:06:38;12.10;;;6.90;;
77322;SDS011;66384;51.052;9.850;2023-09-12T13:09:10;10.80;;;8.10;;
77322;SDS011;66384;51.052;9.850;2023-09-12T13:11:42;19.10;;;9.90;;
77322;SDS011;66384;51.052;9.850;2023-09-12T13:14:14;16.10;;;9.10;;
77322;SDS011;66384;51.052;9.850;2023-09-12T13:16:48;19.00;;;8.60;;
77322;SDS011;66384;51.052;9.850;2023-09-12T13:19:19;13.70;;;9.00;;
77322;SDS011;66384;51.052;9.850;2023-09-12T13:21:51;18.50;;;9.60;;
77322;SDS011;66384;51.052;9.850;2023-09-12T13:24:22;15.00;;;8.10;;
77322;SDS011;66384;51.052;9.850;2023-09-12T13:26:54;17.20;;;7.70;;
77322;SDS011;66384;51.052;9.850;2023-09-12T13:29:26;16.80;;;9.40;;
77322;SDS011;66384;51.052;9.850;2023-09-12T13:31:58;15.70;;;8.60;;
77322;SDS011;66384;51.052;9.850;2023-09-12T13:34:29;22.20;;;8.00;;
77322;SDS011;66384;51.052;9.850;2023-09-12T13:37:01;16.80;;;8.50;;
77322;SDS011;66384;51.052;9.850;2023-09-12T13:39:40;19.60;;;8.40;;
77322;SDS011;66384;51.052;9.850;2023-09-12T13:42:16;16.90;;;8.00;;
77322;SDS011;66384;51.052;9.850;2023-09-12T13:44:49;21.50;;;8.60;;
77322;SDS011;66384;51.052;9.850;2023-09-12T13:47:20;25.40;;;9.10;;
77322;SDS011;66384;51.052;9.850;2023-09-12T13:49:52;22.30;;;9.10;;
77322;SDS011;66384;51.052;9.850;2023-09-12T13:52:26;15.20;;;7.50;;
77322;SDS011;66384;51.052;9.850;2023-09-12T13:54:58;21.00;;;8.10;;
77322;SDS011;66384;51.052;9.850;2023-09-12T13:57:32;14.70;;;8.20;;
77322;SDS011;66384;51.052;9.850;2023-09-12T14:00:15;11.70;;;8.20;;
77322;SDS011;66384;51.052;9.850;2023-09-12T14:02:53;18.70;;;9.20;;
77322;SDS011;66384;51.052;9.850;2023-09-12T14:05:25;12.90;;;8.50;;
77322;SDS011;66384;51.052;9.850;2023-09-12T14:07:59;22.30;;;9.20;;
77322;SDS011;66384;51.052;9.850;2023-09-12T14:10:31;14.30;;;9.00;;
77322;SDS011;66384;51.052;9.850;2023-09-12T14:13:06;21.90;;;8.80;;
77322;SDS011;66384;51.052;9.850;2023-09-12T14:15:49;15.20;;;8.30;;
77322;SDS011;66384;51.052;9.850;2023-09-12T14:18:24;26.60;;;8.30;;
77322;SDS011;66384;51.052;9.850;2023-09-12T14:20:56;15.30;;;8.20;;
77322;SDS011;66384;51.052;9.850;2023-09-12T14:23:29;18.20;;;8.40;;
77322;SDS011;66384;51.052;9.850;2023-09-12T14:26:01;12.90;;;7.90;;
77322;SDS011;66384;51.052;9.850;2023-09-12T14:28:33;13.80;;;8.80;;
77322;SDS011;66384;51.052;9.850;2023-09-12T14:31:05;13.10;;;8.20;;
77322;SDS011;66384;51.052;9.850;2023-09-12T14:33:42;12.80;;;8.60;;
77322;SDS011;66384;51.052;9.850;2023-09-12T14:36:14;19.40;;;10.30;;
77322;SDS011;66384;51.052;9.850;2023-09-12T14:38:46;11.60;;;8.50;;
77322;SDS011;66384;51.052;9.850;2023-09-12T14:41:18;18.00;;;9.30;;
77322;SDS011;66384;51.052;9.850;2023-09-12T14:43:49;18.60;;;9.20;;
77322;SDS011;66384;51.052;9.850;2023-09-12T14:46:21;22.60;;;8.30;;
77322;SDS011;66384;51.052;9.850;2023-09-12T14:48:52;19.40;;;9.00;;
77322;SDS011;66384;51.052;9.850;2023-09-12T14:51:30;19.90;;;9.20;;
77322;SDS011;66384;51.052;9.850;2023-09-12T14:54:03;17.00;;;9.00;;
77322;SDS011;66384;51.052;9.850;2023-09-12T14:56:36;13.40;;;10.10;;
77322;SDS011;66384;51.052;9.850;2023-09-12T14:59:07;14.10;;;9.00;;
77322;SDS011;66384;51.052;9.850;2023-09-12T15:01:39;22.10;;;8.30;;
77322;SDS011;66384;51.052;9.850;2023-09-12T15:04:11;13.90;;;8.80;;
77322;SDS011;66384;51.052;9.850;2023-09-12T15:06:42;14.50;;;8.30;;
77322;SDS011;66384;51.052;9.850;2023-09-12T15:09:14;13.50;;;7.90;;
77322;SDS011;66384;51.052;9.850;2023-09-12T15:11:45;18.30;;;10.10;;
77322;SDS011;66384;51.052;9.850;2023-09-12T15:14:18;14.00;;;8.60;;
77322;SDS011;66384;51.052;9.850;2023-09-12T15:16:51;14.30;;;8.40;;
77322;SDS011;66384;51.052;9.850;2023-09-12T15:19:23;15.20;;;7.90;;
77322;SDS011;66384;51.052;9.850;2023-09-12T15:21:54;14.90;;;8.40;;
77322;SDS011;66384;51.052;9.850;2023-09-12T15:24:26;11.60;;;7.30;;